createdAt,value
2017-08-07T00:00:07.755Z,-4.12
2017-08-07T00:00:55.858Z,-4.12
2017-08-07T00:01:43.891Z,-4.12
2017-08-07T00:02:32.896Z,-4.12
2017-08-07T00:03:21.033Z,-4.12
2017-08-07T00:04:08.967Z,-4.12
2017-08-07T00:04:58.076Z,-4.12
2017-08-07T00:05:46.082Z,-4.12
2017-08-07T00:06:34.026Z,-4.12
2017-08-07T00:07:23.282Z,-4.12
2017-08-07T00:08:11.016Z,-4.12
2017-08-07T00:08:59.221Z,-4.12
2017-08-07T00:09:48.083Z,-4.12
2017-08-07T00:10:36.230Z,-4.12
2017-08-07T00:11:24.420Z,-4.12
2017-08-07T00:12:12.294Z,-4.12
2017-08-07T00:13:01.369Z,-4.12
2017-08-07T00:13:49.556Z,-4.12
2017-08-07T00:14:38.484Z,-4.12
2017-08-07T00:15:26.564Z,-4.12
2017-08-07T00:16:14.591Z,-4.12
2017-08-07T00:17:03.578Z,-4.12
2017-08-07T00:17:51.650Z,-4.12
2017-08-07T00:18:39.718Z,-4.12
2017-08-07T00:19:28.707Z,-4.12
2017-08-07T00:20:16.714Z,-4.12
2017-08-07T00:21:04.874Z,-4.12
2017-08-07T00:21:53.789Z,-4.12
2017-08-07T00:22:41.898Z,-4.12
2017-08-07T00:23:30.023Z,-4.12
2017-08-07T00:24:19.085Z,-4.12
2017-08-07T00:25:07.024Z,-4.12
2017-08-07T00:25:55.149Z,-4.12
2017-08-07T00:26:43.114Z,-4.12
2017-08-07T00:27:37.241Z,-4.12
2017-08-07T00:28:37.227Z,-4.12
2017-08-07T00:29:32.287Z,-4.12
2017-08-07T00:30:33.298Z,-4.12
2017-08-07T00:31:33.315Z,-4.12
2017-08-07T00:32:33.365Z,-4.12
2017-08-07T00:33:28.298Z,-4.12
2017-08-07T00:34:22.466Z,-4.12
2017-08-07T00:35:23.435Z,-4.12
2017-08-07T00:36:24.415Z,-4.12
2017-08-07T00:37:19.431Z,-4.12
2017-08-07T00:38:13.569Z,-4.12
2017-08-07T00:39:14.540Z,-4.12
2017-08-07T00:40:14.659Z,-4.12
2017-08-07T00:41:14.531Z,-4.12
2017-08-07T00:42:09.577Z,-4.12
2017-08-07T00:43:03.739Z,-4.12
2017-08-07T00:44:09.686Z,-4.12
2017-08-07T00:45:03.833Z,-4.12
2017-08-07T00:46:03.842Z,-4.12
2017-08-07T00:46:58.563Z,-4.12
2017-08-07T00:47:58.769Z,-4.12
2017-08-07T00:48:52.938Z,-4.12
2017-08-07T00:49:52.835Z,-4.12
2017-08-07T00:50:47.978Z,-4.12
2017-08-07T00:51:42.907Z,-4.12
2017-08-07T00:52:42.894Z,-4.12
2017-08-07T00:53:38.005Z,-4.12
2017-08-07T00:54:38.194Z,-4.12
2017-08-07T00:55:38.168Z,-4.12
2017-08-07T00:56:43.996Z,-4.12
2017-08-07T00:57:38.814Z,-4.12
2017-08-07T00:58:39.067Z,-4.12
2017-08-07T00:59:39.063Z,-4.12
2017-08-07T01:00:39.282Z,-4.12
2017-08-07T01:01:34.156Z,-4.12
2017-08-07T01:02:33.984Z,-4.12
2017-08-07T01:03:28.031Z,-4.12
2017-08-07T01:04:29.066Z,-4.12
2017-08-07T01:05:30.185Z,-4.12
2017-08-07T01:06:25.319Z,-4.12
2017-08-07T01:07:19.152Z,-4.12
2017-08-07T01:08:19.204Z,-4.12
2017-08-07T01:09:14.533Z,-4.12
2017-08-07T01:10:14.640Z,-4.12
2017-08-07T01:11:08.473Z,-4.12
2017-08-07T01:12:09.359Z,-4.12
2017-08-07T01:13:10.478Z,-4.12
2017-08-07T01:14:11.602Z,-4.12
2017-08-07T01:15:06.529Z,-4.12
2017-08-07T01:16:00.854Z,-4.12
2017-08-07T01:17:00.758Z,-4.12
2017-08-07T01:17:55.859Z,-4.12
2017-08-07T01:18:55.679Z,-4.12
2017-08-07T01:19:49.589Z,-4.12
2017-08-07T01:20:50.016Z,-4.12
2017-08-07T01:21:44.782Z,-4.12
2017-08-07T01:22:39.738Z,-4.12
2017-08-07T01:23:39.729Z,-4.13
2017-08-07T01:24:34.811Z,-4.13
2017-08-07T01:25:29.960Z,-4.13
2017-08-07T01:26:29.858Z,-4.13
2017-08-07T01:27:24.932Z,-4.13
2017-08-07T01:28:19.939Z,-4.13
2017-08-07T01:29:20.965Z,-4.13
2017-08-07T01:30:21.400Z,-4.13
2017-08-07T01:31:21.218Z,-4.13
2017-08-07T01:32:16.247Z,-4.13
2017-08-07T01:33:10.179Z,-4.13
2017-08-07T01:34:10.097Z,-4.13
2017-08-07T01:35:05.206Z,-4.13
2017-08-07T01:36:05.628Z,-4.13
2017-08-07T01:37:05.383Z,-4.13
2017-08-07T01:38:11.407Z,-4.13
2017-08-07T01:39:06.335Z,-4.13
2017-08-07T01:40:06.371Z,-4.13
2017-08-07T01:41:01.550Z,-4.13
2017-08-07T01:41:56.781Z,-4.13
2017-08-07T01:42:56.468Z,-4.13
2017-08-07T01:43:51.463Z,-4.13
2017-08-07T01:44:46.525Z,-4.13
2017-08-07T01:45:46.896Z,-4.13
2017-08-07T01:46:41.528Z,-4.13
2017-08-07T01:47:36.653Z,-4.13
2017-08-07T01:48:37.623Z,-4.13
2017-08-07T01:49:38.941Z,-4.13
2017-08-07T01:50:33.850Z,-4.13
2017-08-07T01:51:27.719Z,-4.13
2017-08-07T01:52:28.083Z,-4.13
2017-08-07T01:53:28.178Z,-4.13
2017-08-07T01:54:23.163Z,-4.13
2017-08-07T01:55:17.265Z,-4.13
2017-08-07T01:56:18.248Z,-4.13
2017-08-07T01:57:18.231Z,-4.13
2017-08-07T01:58:13.294Z,-4.13
2017-08-07T01:59:13.309Z,-4.13
2017-08-07T02:00:13.334Z,-4.13
2017-08-07T02:01:19.422Z,-4.13
2017-08-07T02:02:14.414Z,-4.13
2017-08-07T02:03:14.481Z,-4.13
2017-08-07T02:04:09.421Z,-4.13
2017-08-07T02:05:04.541Z,-4.13
2017-08-07T02:06:05.586Z,-4.13
2017-08-07T02:07:05.597Z,-4.13
2017-08-07T02:08:05.602Z,-4.13
2017-08-07T02:09:00.653Z,-4.13
2017-08-07T02:09:54.681Z,-4.13
2017-08-07T02:10:55.666Z,-4.13
2017-08-07T02:11:55.698Z,-4.13
2017-08-07T02:12:55.943Z,-4.13
2017-08-07T02:13:50.762Z,-4.13
2017-08-07T02:14:44.857Z,-4.13
2017-08-07T02:15:44.820Z,-4.13
2017-08-07T02:16:39.962Z,-4.13
2017-08-07T02:17:34.956Z,-4.13
2017-08-07T02:18:35.964Z,-4.13
2017-08-07T02:19:36.898Z,-4.13
2017-08-07T02:20:32.100Z,-4.13
2017-08-07T02:21:26.024Z,-4.13
2017-08-07T02:22:26.134Z,-4.13
2017-08-07T02:23:26.150Z,-4.13
2017-08-07T02:24:21.231Z,-4.13
2017-08-07T02:25:15.182Z,-4.13
2017-08-07T02:26:15.164Z,-4.13
2017-08-07T02:27:10.284Z,-4.13
2017-08-07T02:28:05.255Z,-4.13
2017-08-07T02:29:06.265Z,-4.13
2017-08-07T02:30:06.431Z,-4.13
2017-08-07T02:31:06.394Z,-4.13
2017-08-07T02:32:06.469Z,-4.13
2017-08-07T02:33:07.573Z,-4.13
2017-08-07T02:34:08.426Z,-4.13
2017-08-07T02:35:02.466Z,-4.13
2017-08-07T02:36:02.572Z,-4.13
2017-08-07T02:36:57.564Z,-4.13
2017-08-07T02:37:52.637Z,-4.13
2017-08-07T02:38:52.641Z,-4.13
2017-08-07T02:39:47.717Z,-4.13
2017-08-07T02:40:42.745Z,-4.13
2017-08-07T02:41:42.848Z,-4.13
2017-08-07T02:42:37.815Z,-4.13
2017-08-07T02:43:32.803Z,-4.13
2017-08-07T02:44:38.828Z,-4.13
2017-08-07T02:45:32.875Z,-4.13
2017-08-07T02:46:32.912Z,-4.13
2017-08-07T02:47:28.043Z,-4.13
2017-08-07T02:48:27.963Z,-4.13
2017-08-07T02:49:22.082Z,-4.13
2017-08-07T02:50:22.146Z,-4.13
2017-08-07T02:51:17.081Z,-4.13
2017-08-07T02:52:12.146Z,-4.13
2017-08-07T02:53:12.199Z,-4.13
2017-08-07T02:54:07.164Z,-4.13
2017-08-07T02:55:02.325Z,-4.13
2017-08-07T02:56:02.194Z,-4.13
2017-08-07T02:56:57.379Z,-4.13
2017-08-07T02:57:52.321Z,-4.13
2017-08-07T02:58:53.431Z,-4.13
2017-08-07T02:59:53.475Z,-4.13
2017-08-07T03:00:53.419Z,-4.13
2017-08-07T03:01:53.408Z,-4.13
2017-08-07T03:02:54.528Z,-4.13
2017-08-07T03:03:55.497Z,-4.13
2017-08-07T03:04:49.551Z,-4.13
2017-08-07T03:05:49.605Z,-4.14
2017-08-07T03:06:44.587Z,-4.13
2017-08-07T03:07:39.605Z,-4.13
2017-08-07T03:08:39.741Z,-4.13
2017-08-07T03:09:34.745Z,-4.13
2017-08-07T03:10:29.841Z,-4.14
2017-08-07T03:11:29.770Z,-4.14
2017-08-07T03:12:24.883Z,-4.14
2017-08-07T03:13:19.909Z,-4.14
2017-08-07T03:14:20.877Z,-4.14
2017-08-07T03:15:20.958Z,-4.14
2017-08-07T03:16:20.974Z,-4.14
2017-08-07T03:17:16.002Z,-4.14
2017-08-07T03:18:09.983Z,-4.14
2017-08-07T03:19:10.048Z,-4.14
2017-08-07T03:20:05.136Z,-4.14
2017-08-07T03:21:05.253Z,-4.14
2017-08-07T03:21:59.159Z,-4.14
2017-08-07T03:22:59.172Z,-4.14
2017-08-07T03:23:54.320Z,-4.14
2017-08-07T03:24:54.222Z,-4.14
2017-08-07T03:25:54.282Z,-4.14
2017-08-07T03:27:00.448Z,-4.14
2017-08-07T03:28:00.328Z,-4.14
2017-08-07T03:29:01.304Z,-4.14
2017-08-07T03:29:55.368Z,-4.14
2017-08-07T03:30:55.440Z,-4.14
2017-08-07T03:31:50.472Z,-4.14
2017-08-07T03:32:45.596Z,-4.14
2017-08-07T03:33:45.587Z,-4.14
2017-08-07T03:34:40.571Z,-4.14
2017-08-07T03:35:40.588Z,-4.14
2017-08-07T03:36:40.678Z,-4.14
2017-08-07T03:37:40.702Z,-4.14
2017-08-07T03:38:34.643Z,-4.14
2017-08-07T03:39:34.775Z,-4.14
2017-08-07T03:40:29.767Z,-4.14
2017-08-07T03:41:29.733Z,-4.14
2017-08-07T03:42:30.806Z,-4.14
2017-08-07T03:43:24.907Z,-4.14
2017-08-07T03:44:24.935Z,-4.14
2017-08-07T03:45:19.907Z,-4.14
2017-08-07T03:46:14.992Z,-4.14
2017-08-07T03:47:15.943Z,-4.14
2017-08-07T03:48:16.030Z,-4.14
2017-08-07T03:49:11.086Z,-4.14
2017-08-07T03:50:11.072Z,-4.14
2017-08-07T03:51:05.116Z,-4.14
2017-08-07T03:52:06.177Z,-4.14
2017-08-07T03:53:06.185Z,-4.14
2017-08-07T03:54:01.228Z,-4.14
2017-08-07T03:54:56.279Z,-4.14
2017-08-07T03:55:57.433Z,-4.14
2017-08-07T03:56:57.296Z,-4.14
2017-08-07T03:57:52.321Z,-4.14
2017-08-07T03:58:52.387Z,-4.14
2017-08-07T03:59:53.431Z,-4.14
2017-08-07T04:00:53.352Z,-4.14
2017-08-07T04:01:53.465Z,-4.14
2017-08-07T04:02:53.559Z,-4.14
2017-08-07T04:03:53.596Z,-4.14
2017-08-07T04:04:53.559Z,-4.14
2017-08-07T04:06:00.663Z,-4.14
2017-08-07T04:07:01.658Z,-4.14
2017-08-07T04:08:02.673Z,-4.14
2017-08-07T04:09:02.670Z,-4.14
2017-08-07T04:10:02.673Z,-4.14
2017-08-07T04:11:02.648Z,-4.14
2017-08-07T04:12:02.813Z,-4.14
2017-08-07T04:13:02.869Z,-4.14
2017-08-07T04:14:02.858Z,-4.14
2017-08-07T04:15:02.884Z,-4.14
2017-08-07T04:16:02.894Z,-4.14
2017-08-07T04:17:02.910Z,-4.14
2017-08-07T04:18:03.025Z,-4.14
2017-08-07T04:19:02.930Z,-4.14
2017-08-07T04:20:03.055Z,-4.14
2017-08-07T04:21:03.144Z,-4.14
2017-08-07T04:22:03.166Z,-4.14
2017-08-07T04:23:03.256Z,-4.14
2017-08-07T04:24:09.190Z,-4.14
2017-08-07T04:25:04.082Z,-4.14
2017-08-07T04:26:04.096Z,-4.14
2017-08-07T04:27:04.277Z,-4.14
2017-08-07T04:27:58.252Z,-4.14
2017-08-07T04:28:58.283Z,-4.14
2017-08-07T04:29:53.303Z,-4.14
2017-08-07T04:30:48.336Z,-4.14
2017-08-07T04:31:42.441Z,-4.14
2017-08-07T04:32:42.367Z,-4.14
2017-08-07T04:33:37.434Z,-4.14
2017-08-07T04:34:37.559Z,-4.14
2017-08-07T04:35:37.503Z,-4.14
2017-08-07T04:36:37.511Z,-4.14
2017-08-07T04:37:31.555Z,-4.14
2017-08-07T04:38:31.656Z,-4.14
2017-08-07T04:39:26.625Z,-4.14
2017-08-07T04:40:21.696Z,-4.14
2017-08-07T04:41:15.694Z,-4.14
2017-08-07T04:42:15.763Z,-4.14
2017-08-07T04:43:10.806Z,-4.14
2017-08-07T04:44:05.851Z,-4.14
2017-08-07T04:45:05.946Z,-4.14
2017-08-07T04:46:00.893Z,-4.13
2017-08-07T04:46:55.904Z,-4.13
2017-08-07T04:47:44.945Z,-4.13
2017-08-07T04:48:33.928Z,-4.13
2017-08-07T04:49:34.015Z,-4.13
2017-08-07T04:50:29.117Z,-4.13
2017-08-07T04:51:23.185Z,-4.13
2017-08-07T04:52:23.181Z,-4.13
2017-08-07T04:53:17.262Z,-4.13
2017-08-07T04:54:17.231Z,-4.13
2017-08-07T04:55:06.290Z,-4.13
2017-08-07T04:55:55.389Z,-4.13
2017-08-07T04:56:49.655Z,-4.13
2017-08-07T04:57:49.390Z,-4.13
2017-08-07T04:58:44.430Z,-4.13
2017-08-07T04:59:38.514Z,-4.13
2017-08-07T05:00:38.534Z,-4.13
2017-08-07T05:01:32.576Z,-4.13
2017-08-07T05:02:33.646Z,-4.13
2017-08-07T05:03:27.608Z,-4.13
2017-08-07T05:04:22.599Z,-4.13
2017-08-07T05:05:17.675Z,-4.12
2017-08-07T05:06:17.768Z,-4.12
2017-08-07T05:07:12.723Z,-4.12
2017-08-07T05:08:06.826Z,-4.12
2017-08-07T05:09:06.802Z,-4.12
2017-08-07T05:10:01.884Z,-4.12
2017-08-07T05:10:56.953Z,-4.11
2017-08-07T05:11:57.887Z,-4.11
2017-08-07T05:12:58.017Z,-4.11
2017-08-07T05:13:53.063Z,-4.11
2017-08-07T05:14:48.088Z,-4.11
2017-08-07T05:15:37.170Z,-4.11
2017-08-07T05:16:37.151Z,-4.11
2017-08-07T05:17:32.175Z,-4.11
2017-08-07T05:18:26.259Z,-4.11
2017-08-07T05:19:26.280Z,-4.11
2017-08-07T05:20:20.284Z,-4.11
2017-08-07T05:21:15.299Z,-4.11
2017-08-07T05:22:15.984Z,-4.11
2017-08-07T05:23:10.436Z,-4.11
2017-08-07T05:24:04.390Z,-4.11
2017-08-07T05:24:59.533Z,-4.11
2017-08-07T05:25:53.456Z,-4.11
2017-08-07T05:26:53.604Z,-4.12
2017-08-07T05:27:47.612Z,-4.12
2017-08-07T05:28:47.698Z,-4.12
2017-08-07T05:29:41.728Z,-4.12
2017-08-07T05:30:35.789Z,-4.12
2017-08-07T05:31:24.764Z,-4.12
2017-08-07T05:32:19.860Z,-4.12
2017-08-07T05:33:19.897Z,-4.12
2017-08-07T05:34:19.815Z,-4.12
2017-08-07T05:35:08.886Z,-4.12
2017-08-07T05:36:04.038Z,-4.12
2017-08-07T05:36:58.007Z,-4.13
2017-08-07T05:37:52.167Z,-4.12
2017-08-07T05:38:46.160Z,-4.13
2017-08-07T05:39:41.129Z,-4.13
2017-08-07T05:40:41.199Z,-4.13
2017-08-07T05:41:35.667Z,-4.13
2017-08-07T05:42:30.299Z,-4.13
2017-08-07T05:43:30.360Z,-4.12
2017-08-07T05:44:24.309Z,-4.12
2017-08-07T05:45:12.381Z,-4.12
2017-08-07T05:46:01.451Z,-4.13
2017-08-07T05:46:55.796Z,-4.12
2017-08-07T05:47:49.526Z,-4.12
2017-08-07T05:48:43.687Z,-4.12
2017-08-07T05:49:37.727Z,-4.12
2017-08-07T05:50:26.826Z,-4.12
2017-08-07T05:51:15.701Z,-4.12
2017-08-07T05:52:16.113Z,-4.12
2017-08-07T05:53:09.856Z,-4.12
2017-08-07T05:53:58.914Z,-4.12
2017-08-07T05:54:52.987Z,-4.12
2017-08-07T05:55:42.002Z,-4.12
2017-08-07T05:56:42.030Z,-4.11
2017-08-07T05:57:31.412Z,-4.11
2017-08-07T05:58:19.180Z,-4.11
2017-08-07T05:59:20.116Z,-4.11
2017-08-07T06:00:09.249Z,-4.11
2017-08-07T06:00:57.302Z,-4.10
2017-08-07T06:01:46.410Z,-4.10
2017-08-07T06:02:41.395Z,-4.10
2017-08-07T06:03:35.415Z,-4.10
2017-08-07T06:04:24.492Z,-4.10
2017-08-07T06:05:19.589Z,-4.10
2017-08-07T06:06:14.546Z,-4.10
2017-08-07T06:07:08.712Z,-4.10
2017-08-07T06:07:57.837Z,-4.09
2017-08-07T06:08:51.736Z,-4.08
2017-08-07T06:09:45.741Z,-4.08
2017-08-07T06:10:39.836Z,-4.07
2017-08-07T06:11:28.552Z,-4.07
2017-08-07T06:12:17.571Z,-4.07
2017-08-07T06:13:06.723Z,-4.07
2017-08-07T06:14:00.704Z,-4.07
2017-08-07T06:14:56.009Z,-4.07
2017-08-07T06:15:50.059Z,-4.06
2017-08-07T06:16:38.138Z,-4.06
2017-08-07T06:17:33.180Z,-4.06
2017-08-07T06:18:28.305Z,-4.06
2017-08-07T06:19:23.376Z,-4.06
2017-08-07T06:20:17.275Z,-4.05
2017-08-07T06:21:11.423Z,-4.05
2017-08-07T06:21:59.396Z,-4.05
2017-08-07T06:22:47.474Z,-4.05
2017-08-07T06:23:41.652Z,-3.00
2017-08-07T06:24:35.618Z,-2.52
2017-08-07T06:25:30.739Z,-4.04
2017-08-07T06:26:19.680Z,-4.04
2017-08-07T06:27:14.003Z,10.45
2017-08-07T06:28:01.827Z,13.72
2017-08-07T06:29:01.896Z,-4.03
2017-08-07T06:29:50.986Z,22.94
2017-08-07T06:30:45.001Z,19.73
2017-08-07T06:31:39.045Z,25.88
2017-08-07T06:32:28.108Z,22.16
2017-08-07T06:33:17.183Z,16.06
2017-08-07T06:34:11.255Z,24.61
2017-08-07T06:35:00.271Z,21.19
2017-08-07T06:36:00.290Z,27.59
2017-08-07T06:36:49.324Z,32.59
2017-08-07T06:37:38.331Z,30.51
2017-08-07T06:38:33.505Z,40.33
2017-08-07T06:39:28.486Z,36.50
2017-08-07T06:40:16.458Z,35.40
2017-08-07T06:41:10.604Z,30.74
2017-08-07T06:41:58.704Z,29.66
2017-08-07T06:42:47.788Z,35.07
2017-08-07T06:43:35.917Z,26.67
2017-08-07T06:44:30.901Z,10.83
2017-08-07T06:45:19.825Z,11.22
2017-08-07T06:46:08.375Z,-1.90
2017-08-07T06:46:57.051Z,-4.06
2017-08-07T06:47:45.059Z,-4.06
2017-08-07T06:48:34.265Z,-4.06
2017-08-07T06:49:35.189Z,-4.06
2017-08-07T06:50:24.296Z,-4.07
2017-08-07T06:51:12.458Z,-4.07
2017-08-07T06:52:01.397Z,-4.07
2017-08-07T06:53:01.427Z,-4.07
2017-08-07T06:53:56.548Z,-4.07
2017-08-07T06:54:51.496Z,-4.07
2017-08-07T06:55:39.562Z,-4.07
2017-08-07T06:56:34.573Z,-4.07
2017-08-07T06:57:23.705Z,-4.07
2017-08-07T06:58:12.696Z,-4.07
2017-08-07T06:59:06.775Z,-4.07
2017-08-07T06:59:54.789Z,-4.07
2017-08-07T07:00:48.876Z,-4.07
2017-08-07T07:01:42.985Z,-4.07
2017-08-07T07:02:36.942Z,-4.06
2017-08-07T07:03:31.037Z,1.72
2017-08-07T07:04:31.107Z,-1.11
2017-08-07T07:05:20.206Z,-4.06
2017-08-07T07:06:20.142Z,-1.68
2017-08-07T07:07:14.196Z,-4.07
2017-08-07T07:08:03.308Z,-4.07
2017-08-07T07:09:03.325Z,-4.08
2017-08-07T07:09:58.330Z,-4.08
2017-08-07T07:10:52.471Z,-4.08
2017-08-07T07:11:47.542Z,-4.08
2017-08-07T07:12:47.509Z,-4.07
2017-08-07T07:13:41.526Z,-4.07
2017-08-07T07:14:36.610Z,-1.04
2017-08-07T07:15:36.671Z,7.48
2017-08-07T07:16:31.763Z,10.40
2017-08-07T07:17:19.727Z,20.86
2017-08-07T07:18:08.896Z,11.73
2017-08-07T07:19:04.008Z,17.36
2017-08-07T07:19:52.960Z,28.96
2017-08-07T07:20:47.029Z,39.00
2017-08-07T07:21:41.305Z,40.63
2017-08-07T07:22:36.133Z,37.30
2017-08-07T07:23:25.079Z,31.35
2017-08-07T07:24:14.428Z,33.84
2017-08-07T07:25:08.354Z,35.31
2017-08-07T07:26:02.315Z,32.34
2017-08-07T07:26:51.838Z,31.09
2017-08-07T07:27:39.502Z,31.04
2017-08-07T07:28:28.497Z,31.34
2017-08-07T07:29:17.511Z,32.30
2017-08-07T07:30:11.656Z,40.81
2017-08-07T07:30:59.364Z,41.88
2017-08-07T07:31:47.765Z,40.22
2017-08-07T07:32:42.060Z,40.73
2017-08-07T07:33:30.869Z,43.43
2017-08-07T07:34:18.912Z,41.71
2017-08-07T07:35:08.066Z,46.26
2017-08-07T07:36:01.996Z,46.09
2017-08-07T07:36:49.862Z,46.45
2017-08-07T07:37:45.172Z,45.91
2017-08-07T07:38:34.225Z,45.98
2017-08-07T07:39:23.238Z,45.48
2017-08-07T07:40:17.387Z,45.57
2017-08-07T07:41:05.286Z,44.43
2017-08-07T07:41:59.413Z,41.66
2017-08-07T07:42:53.451Z,41.42
2017-08-07T07:43:47.207Z,37.32
2017-08-07T07:44:42.573Z,27.24
2017-08-07T07:45:36.518Z,38.96
2017-08-07T07:46:25.718Z,40.24
2017-08-07T07:47:14.684Z,37.50
2017-08-07T07:48:03.520Z,41.91
2017-08-07T07:48:58.838Z,41.53
2017-08-07T07:49:52.829Z,37.28
2017-08-07T07:50:46.797Z,34.66
2017-08-07T07:51:41.981Z,37.40
2017-08-07T07:52:36.070Z,40.35
2017-08-07T07:53:30.021Z,39.17
2017-08-07T07:54:19.230Z,37.14
2017-08-07T07:55:07.393Z,34.80
2017-08-07T07:56:02.383Z,44.83
2017-08-07T07:56:51.430Z,43.94
2017-08-07T07:57:45.548Z,42.84
2017-08-07T07:58:33.524Z,41.69
2017-08-07T07:59:27.602Z,40.44
2017-08-07T08:00:15.628Z,46.07
2017-08-07T08:01:09.727Z,46.31
2017-08-07T08:01:57.845Z,47.17
2017-08-07T08:02:51.873Z,45.95
2017-08-07T08:03:47.248Z,46.77
2017-08-07T08:04:41.927Z,46.64
2017-08-07T08:05:31.049Z,45.91
2017-08-07T08:06:26.019Z,45.01
2017-08-07T08:07:15.214Z,45.39
2017-08-07T08:08:09.178Z,45.71
2017-08-07T08:09:09.652Z,44.02
2017-08-07T08:10:04.398Z,43.05
2017-08-07T08:11:05.397Z,43.91
2017-08-07T08:12:05.527Z,43.56
2017-08-07T08:13:00.567Z,43.75
2017-08-07T08:13:49.639Z,43.54
2017-08-07T08:14:37.770Z,44.26
2017-08-07T08:15:31.836Z,45.44
2017-08-07T08:16:25.840Z,41.67
2017-08-07T08:17:15.007Z,42.49
2017-08-07T08:18:09.084Z,42.79
2017-08-07T08:19:03.074Z,45.32
2017-08-07T08:19:58.195Z,40.98
2017-08-07T08:20:47.275Z,41.30
2017-08-07T08:21:42.331Z,41.04
2017-08-07T08:22:37.388Z,41.55
2017-08-07T08:23:25.504Z,43.40
2017-08-07T08:24:20.479Z,44.06
2017-08-07T08:25:14.671Z,42.64
2017-08-07T08:26:03.834Z,45.00
2017-08-07T08:26:52.896Z,45.31
2017-08-07T08:27:47.900Z,43.29
2017-08-07T08:28:47.961Z,41.55
2017-08-07T08:29:54.113Z,40.18
2017-08-07T08:30:48.119Z,41.58
2017-08-07T08:31:37.295Z,43.02
2017-08-07T08:32:26.327Z,44.40
2017-08-07T08:33:15.325Z,45.38
2017-08-07T08:34:15.470Z,46.07
2017-08-07T08:35:09.588Z,46.15
2017-08-07T08:36:09.838Z,46.87
2017-08-07T08:37:04.584Z,47.38
2017-08-07T08:37:58.650Z,46.24
2017-08-07T08:38:52.735Z,46.04
2017-08-07T08:39:46.806Z,45.90
2017-08-07T08:40:40.963Z,46.42
2017-08-07T08:41:29.985Z,46.35
2017-08-07T08:42:23.997Z,46.82
2017-08-07T08:43:19.033Z,46.19
2017-08-07T08:44:07.188Z,45.41
2017-08-07T08:45:02.261Z,42.65
2017-08-07T08:45:51.349Z,43.82
2017-08-07T08:46:40.922Z,44.13
2017-08-07T08:47:28.476Z,44.18
2017-08-07T08:48:18.162Z,42.63
2017-08-07T08:49:11.653Z,44.82
2017-08-07T08:50:05.750Z,43.95
2017-08-07T08:50:53.764Z,43.56
2017-08-07T08:51:43.164Z,42.30
2017-08-07T08:52:31.015Z,40.69
2017-08-07T08:53:25.112Z,40.66
2017-08-07T08:54:13.136Z,41.39
2017-08-07T08:55:08.319Z,38.76
2017-08-07T08:55:56.371Z,39.08
2017-08-07T08:56:44.450Z,41.12
2017-08-07T08:57:32.403Z,40.68
2017-08-07T08:58:33.423Z,41.88
2017-08-07T08:59:21.654Z,40.84
2017-08-07T09:00:10.772Z,41.34
2017-08-07T09:01:04.849Z,43.99
2017-08-07T09:01:53.990Z,45.75
2017-08-07T09:02:49.051Z,44.79
2017-08-07T09:03:55.110Z,40.91
2017-08-07T09:04:44.100Z,42.30
2017-08-07T09:05:45.290Z,41.04
2017-08-07T09:06:34.300Z,40.89
2017-08-07T09:07:28.416Z,38.21
2017-08-07T09:08:22.467Z,40.74
2017-08-07T09:09:16.583Z,39.23
2017-08-07T09:10:10.618Z,40.54
2017-08-07T09:11:05.683Z,39.09
2017-08-07T09:11:59.801Z,40.68
2017-08-07T09:12:48.196Z,41.35
2017-08-07T09:13:48.002Z,42.69
2017-08-07T09:14:41.985Z,38.00
2017-08-07T09:15:36.207Z,40.38
2017-08-07T09:16:31.169Z,42.49
2017-08-07T09:17:26.224Z,40.21
2017-08-07T09:18:21.424Z,40.64
2017-08-07T09:19:16.335Z,42.04
2017-08-07T09:20:11.477Z,40.34
2017-08-07T09:21:00.473Z,41.53
2017-08-07T09:21:55.690Z,41.16
2017-08-07T09:22:55.741Z,40.74
2017-08-07T09:23:56.146Z,42.25
2017-08-07T09:24:44.851Z,40.19
2017-08-07T09:25:39.079Z,38.36
2017-08-07T09:26:33.023Z,37.10
2017-08-07T09:27:33.164Z,40.73
2017-08-07T09:28:34.298Z,38.62
2017-08-07T09:29:28.409Z,40.63
2017-08-07T09:30:17.380Z,42.29
2017-08-07T09:31:11.491Z,41.43
2017-08-07T09:32:11.509Z,39.42
2017-08-07T09:33:05.665Z,41.19
2017-08-07T09:34:05.729Z,42.69
2017-08-07T09:34:59.790Z,42.56
2017-08-07T09:35:54.713Z,42.10
2017-08-07T09:36:48.828Z,44.66
2017-08-07T09:37:36.926Z,45.82
2017-08-07T09:38:24.997Z,43.80
2017-08-07T09:39:19.103Z,45.96
2017-08-07T09:40:13.104Z,43.62
2017-08-07T09:41:13.159Z,45.97
2017-08-07T09:42:08.202Z,43.60
2017-08-07T09:43:02.337Z,41.76
2017-08-07T09:43:56.315Z,43.22
2017-08-07T09:44:51.415Z,43.25
2017-08-07T09:45:40.729Z,43.28
2017-08-07T09:46:29.516Z,39.23
2017-08-07T09:47:24.615Z,41.57
2017-08-07T09:48:18.797Z,40.13
2017-08-07T09:49:13.814Z,38.28
2017-08-07T09:50:13.847Z,39.83
2017-08-07T09:51:03.034Z,39.86
2017-08-07T09:51:57.973Z,42.10
2017-08-07T09:52:58.029Z,39.39
2017-08-07T09:53:52.143Z,38.54
2017-08-07T09:54:46.267Z,39.68
2017-08-07T09:55:34.366Z,37.15
2017-08-07T09:56:34.656Z,38.97
2017-08-07T09:57:28.577Z,40.51
2017-08-07T09:58:22.589Z,40.52
2017-08-07T09:59:17.568Z,40.45
2017-08-07T10:00:17.692Z,42.12
2017-08-07T10:01:17.798Z,42.93
2017-08-07T10:02:07.108Z,43.66
2017-08-07T10:03:00.960Z,36.93
2017-08-07T10:03:50.041Z,39.46
2017-08-07T10:04:44.117Z,41.59
2017-08-07T10:05:39.161Z,40.32
2017-08-07T10:06:33.181Z,38.88
2017-08-07T10:07:28.362Z,41.81
2017-08-07T10:08:22.375Z,38.38
2017-08-07T10:09:22.448Z,39.66
2017-08-07T10:10:16.466Z,41.16
2017-08-07T10:11:04.498Z,40.75
2017-08-07T10:11:59.627Z,43.38
2017-08-07T10:12:54.747Z,41.49
2017-08-07T10:13:48.718Z,41.82
2017-08-07T10:14:42.821Z,42.07
2017-08-07T10:15:36.930Z,45.07
2017-08-07T10:16:25.977Z,42.79
2017-08-07T10:17:20.011Z,42.80
2017-08-07T10:18:14.157Z,43.16
2017-08-07T10:19:08.134Z,42.98
2017-08-07T10:20:02.211Z,43.54
2017-08-07T10:21:02.282Z,40.61
2017-08-07T10:22:02.321Z,44.43
2017-08-07T10:22:51.368Z,42.84
2017-08-07T10:23:39.736Z,44.26
2017-08-07T10:24:33.552Z,44.40
2017-08-07T10:25:27.603Z,42.81
2017-08-07T10:26:21.744Z,40.57
2017-08-07T10:27:15.779Z,37.57
2017-08-07T10:28:04.902Z,39.03
2017-08-07T10:29:00.286Z,41.41
2017-08-07T10:29:49.098Z,40.76
2017-08-07T10:30:43.125Z,38.09
2017-08-07T10:31:37.325Z,39.48
2017-08-07T10:32:31.288Z,41.63
2017-08-07T10:33:26.314Z,39.89
2017-08-07T10:34:26.415Z,39.42
2017-08-07T10:35:26.487Z,40.99
2017-08-07T10:36:20.617Z,36.56
2017-08-07T10:37:15.739Z,40.43
2017-08-07T10:38:04.821Z,42.55
2017-08-07T10:38:58.965Z,39.04
2017-08-07T10:39:48.047Z,40.90
2017-08-07T10:40:48.030Z,39.47
2017-08-07T10:41:42.084Z,40.45
2017-08-07T10:42:37.175Z,41.20
2017-08-07T10:43:25.258Z,36.54
2017-08-07T10:44:20.273Z,38.97
2017-08-07T10:45:14.578Z,39.84
2017-08-07T10:46:14.516Z,37.85
2017-08-07T10:47:09.591Z,38.39
2017-08-07T10:48:04.704Z,41.30
2017-08-07T10:48:58.602Z,40.70
2017-08-07T10:49:52.823Z,39.22
2017-08-07T10:50:52.856Z,36.88
2017-08-07T10:51:46.951Z,36.20
2017-08-07T10:52:36.084Z,38.75
2017-08-07T10:53:30.058Z,38.71
2017-08-07T10:54:24.100Z,38.51
2017-08-07T10:55:12.316Z,39.53
2017-08-07T10:56:07.352Z,38.74
2017-08-07T10:57:02.485Z,37.58
2017-08-07T10:57:56.529Z,35.05
2017-08-07T10:58:45.568Z,36.09
2017-08-07T10:59:39.673Z,36.26
2017-08-07T11:00:39.851Z,37.04
2017-08-07T11:01:35.108Z,34.17
2017-08-07T11:02:28.989Z,35.28
2017-08-07T11:03:23.071Z,35.48
2017-08-07T11:04:12.132Z,37.70
2017-08-07T11:05:01.128Z,36.30
2017-08-07T11:05:55.257Z,36.70
2017-08-07T11:06:49.326Z,41.86
2017-08-07T11:07:43.498Z,39.24
2017-08-07T11:08:43.466Z,38.62
2017-08-07T11:09:37.569Z,39.93
2017-08-07T11:10:32.781Z,38.67
2017-08-07T11:11:27.840Z,41.84
2017-08-07T11:12:16.181Z,37.20
2017-08-07T11:13:11.017Z,36.28
2017-08-07T11:14:05.036Z,34.75
2017-08-07T11:14:59.133Z,35.94
2017-08-07T11:15:54.178Z,36.66
2017-08-07T11:16:49.349Z,35.46
2017-08-07T11:17:43.369Z,34.19
2017-08-07T11:18:38.458Z,35.60
2017-08-07T11:19:32.538Z,35.76
2017-08-07T11:20:27.644Z,36.93
2017-08-07T11:21:15.736Z,35.45
2017-08-07T11:22:04.771Z,37.86
2017-08-07T11:22:58.944Z,35.80
2017-08-07T11:23:53.879Z,33.54
2017-08-07T11:24:48.043Z,34.31
2017-08-07T11:25:43.136Z,33.44
2017-08-07T11:26:43.157Z,34.80
2017-08-07T11:27:38.266Z,33.81
2017-08-07T11:28:27.424Z,32.90
2017-08-07T11:29:16.461Z,34.82
2017-08-07T11:30:10.525Z,30.59
2017-08-07T11:31:04.635Z,32.26
2017-08-07T11:31:58.693Z,33.01
2017-08-07T11:32:52.812Z,33.49
2017-08-07T11:33:46.896Z,30.68
2017-08-07T11:34:35.983Z,31.34
2017-08-07T11:35:30.080Z,31.64
2017-08-07T11:36:31.206Z,35.00
2017-08-07T11:37:20.303Z,34.74
2017-08-07T11:38:09.424Z,33.89
2017-08-07T11:39:03.751Z,33.39
2017-08-07T11:39:57.496Z,35.32
2017-08-07T11:40:46.498Z,34.07
2017-08-07T11:41:40.636Z,34.37
2017-08-07T11:42:34.685Z,34.21
2017-08-07T11:43:29.853Z,33.99
2017-08-07T11:44:18.493Z,33.48
2017-08-07T11:45:11.989Z,34.42
2017-08-07T11:46:01.052Z,34.87